Time;durP1;ratioP1;P1;durP2;ratioP2;P2;SDS_P1;SDS_P2;PMS_P1;PMS_P2;Temp;Humidity;BMP_temperature;BMP_pressure;BME280_temperature;BME280_humidity;BME280_pressure;Samples;Min_cycle;Max_cycle;Signal;HPM_P1;HPM_P2
2022/03/06 00:02:12;;;;;;;22.83;20.38;;;0.70;99.90;;;;;;5142623;27;20042;-72
2022/03/06 00:04:39;;;;;;;23.80;20.55;;;0.70;99.90;;;;;;5153282;27;20564;-72
2022/03/06 00:07:05;;;;;;;23.33;20.52;;;0.70;99.90;;;;;;5154824;27;20387;-72
2022/03/06 00:09:31;;;;;;;23.42;20.35;;;0.70;99.90;;;;;;5143237;27;20050;-74
2022/03/06 00:11:57;;;;;;;24.58;20.65;;;0.70;99.90;;;;;;5134916;27;20054;-72
2022/03/06 00:14:22;;;;;;;23.40;20.65;;;0.70;99.90;;;;;;5153591;27;20050;-72
2022/03/06 00:16:48;;;;;;;24.23;21.08;;;0.70;99.90;;;;;;5153814;27;20046;-72
2022/03/06 00:19:14;;;;;;;24.97;21.37;;;0.60;99.90;;;;;;5146931;27;20039;-72
2022/03/06 00:21:40;;;;;;;24.40;21.40;;;0.60;99.90;;;;;;5133156;27;20053;-72
2022/03/06 00:24:06;;;;;;;23.10;20.35;;;0.60;99.90;;;;;;5149155;27;20522;-73
2022/03/06 00:26:33;;;;;;;25.10;20.95;;;0.50;99.90;;;;;;5152916;27;20126;-72
2022/03/06 00:28:59;;;;;;;23.70;21.08;;;0.50;99.90;;;;;;5152936;27;20039;-72
2022/03/06 00:31:25;;;;;;;24.08;21.38;;;0.50;99.90;;;;;;5153757;27;20038;-72
2022/03/06 00:33:51;;;;;;;24.25;20.55;;;0.40;99.90;;;;;;5152417;27;20510;-72
2022/03/06 00:36:18;;;;;;;23.30;20.90;;;0.40;99.90;;;;;;5153928;27;20054;-72
2022/03/06 00:38:44;;;;;;;23.50;20.02;;;0.30;99.90;;;;;;5147216;27;20075;-72
2022/03/06 00:41:11;;;;;;;23.17;20.00;;;0.30;99.90;;;;;;5133115;27;20047;-72
2022/03/06 00:43:37;;;;;;;24.60;20.50;;;0.30;99.90;;;;;;5136245;27;20102;-74
2022/03/06 00:46:03;;;;;;;23.27;20.75;;;0.30;99.90;;;;;;5153680;27;20047;-72
2022/03/06 00:48:29;;;;;;;23.70;20.98;;;0.20;99.90;;;;;;5152438;27;20046;-72
2022/03/06 00:50:55;;;;;;;22.83;20.40;;;0.20;99.90;;;;;;5131508;27;20042;-71
2022/03/06 00:53:21;;;;;;;22.80;20.33;;;0.30;99.90;;;;;;5153341;27;20245;-72
2022/03/06 00:55:47;;;;;;;24.63;22.03;;;0.30;99.90;;;;;;5150489;27;20467;-72
2022/03/06 00:58:13;;;;;;;23.80;20.83;;;0.20;99.90;;;;;;5154055;27;20035;-72
2022/03/06 01:00:41;;;;;;;23.57;20.87;;;0.30;99.90;;;;;;5152946;27;20047;-74
2022/03/06 01:03:11;;;;;;;23.13;20.63;;;0.30;99.90;;;;;;5154060;27;20050;-71
2022/03/06 01:05:38;;;;;;;24.80;22.10;;;0.20;99.90;;;;;;5135463;27;20039;-74
2022/03/06 01:08:05;;;;;;;23.47;20.97;;;0.20;99.90;;;;;;5148802;27;20066;-72
2022/03/06 01:10:32;;;;;;;24.77;21.73;;;0.20;99.90;;;;;;5136700;27;20467;-72
2022/03/06 01:12:58;;;;;;;23.90;21.02;;;0.10;99.90;;;;;;5132678;28;20043;-72
2022/03/06 01:15:24;;;;;;;24.50;21.10;;;0.10;99.90;;;;;;5151352;27;20075;-72
2022/03/06 01:17:50;;;;;;;24.23;21.63;;;0.10;99.90;;;;;;5137773;27;20499;-72
2022/03/06 01:20:17;;;;;;;24.80;21.05;;;0.00;99.90;;;;;;5133308;27;20143;-72
2022/03/06 01:22:44;;;;;;;27.73;23.45;;;-0.10;99.90;;;;;;5123113;27;20479;-72
2022/03/06 01:25:10;;;;;;;25.03;22.30;;;-0.10;99.90;;;;;;5150138;27;20045;-72
2022/03/06 01:27:36;;;;;;;24.97;22.37;;;-0.10;99.90;;;;;;5133219;28;20130;-72
2022/03/06 01:30:03;;;;;;;25.70;23.10;;;-0.10;99.90;;;;;;5114412;28;20071;-72
2022/03/06 01:32:29;;;;;;;25.53;22.87;;;0.00;99.90;;;;;;5144518;27;20078;-72
2022/03/06 01:34:54;;;;;;;26.17;23.43;;;0.00;99.90;;;;;;5152427;27;20078;-72
2022/03/06 01:37:20;;;;;;;26.40;23.67;;;0.00;99.90;;;;;;5153920;27;20428;-72
2022/03/06 01:39:45;;;;;;;28.00;25.10;;;0.00;99.90;;;;;;5138275;27;20101;-72
2022/03/06 01:42:11;;;;;;;27.37;24.47;;;0.10;99.90;;;;;;5133211;28;20069;-72
2022/03/06 01:44:37;;;;;;;27.05;24.20;;;0.10;99.90;;;;;;5146363;27;20058;-72
2022/03/06 01:47:03;;;;;;;26.08;23.33;;;0.10;99.90;;;;;;5153072;27;20042;-72
2022/03/06 01:49:29;;;;;;;28.13;25.07;;;0.10;99.90;;;;;;5151720;27;20083;-72
2022/03/06 01:51:55;;;;;;;27.15;24.38;;;0.20;99.90;;;;;;5133139;27;20048;-72
2022/03/06 01:54:20;;;;;;;28.03;25.07;;;0.20;99.90;;;;;;5138467;27;20066;-72
2022/03/06 01:56:46;;;;;;;27.60;24.80;;;0.20;99.90;;;;;;5138959;27;20039;-73
2022/03/06 01:59:12;;;;;;;27.07;24.30;;;0.20;99.90;;;;;;5154905;27;20039;-72
2022/03/06 02:01:38;;;;;;;27.17;24.30;;;0.20;99.90;;;;;;5124653;27;20084;-71
2022/03/06 02:04:03;;;;;;;28.40;25.50;;;0.20;99.90;;;;;;5144263;27;20095;-72
2022/03/06 02:06:29;;;;;;;29.13;26.13;;;0.30;99.90;;;;;;5157124;27;20039;-72
2022/03/06 02:08:55;;;;;;;29.10;26.30;;;0.20;99.90;;;;;;5148368;27;20047;-72
2022/03/06 02:11:25;;;;;;;28.00;25.30;;;0.20;99.90;;;;;;5148576;27;20483;-72
2022/03/06 02:13:52;;;;;;;27.80;24.42;;;0.20;99.90;;;;;;5135636;27;20054;-73
2022/03/06 02:16:18;;;;;;;27.60;24.60;;;0.20;99.90;;;;;;5137497;27;20039;-72
2022/03/06 02:18:43;;;;;;;28.30;25.45;;;0.20;99.90;;;;;;5117902;27;20365;-72
2022/03/06 02:21:11;;;;;;;27.50;24.83;;;0.20;99.90;;;;;;5139056;27;20495;-73
2022/03/06 02:23:37;;;;;;;27.80;25.07;;;0.10;99.90;;;;;;5152871;27;20122;-72
2022/03/06 02:26:06;;;;;;;28.33;25.43;;;0.10;99.90;;;;;;5155519;27;20476;-72
2022/03/06 02:28:32;;;;;;;28.17;25.37;;;0.10;99.90;;;;;;5138472;27;20391;-72
2022/03/06 02:30:57;;;;;;;28.80;25.90;;;0.10;99.90;;;;;;5154670;27;20091;-72
2022/03/06 02:33:24;;;;;;;28.10;25.30;;;0.10;99.90;;;;;;5150554;27;20042;-72
2022/03/06 02:35:50;;;;;;;28.53;25.53;;;0.00;99.90;;;;;;5155015;27;20047;-74
2022/03/06 02:38:15;;;;;;;26.87;24.13;;;0.00;99.90;;;;;;5136084;27;20076;-72
2022/03/06 02:40:43;;;;;;;28.03;25.13;;;0.00;99.90;;;;;;5138292;27;20075;-72
2022/03/06 02:43:10;;;;;;;28.50;25.57;;;0.00;99.90;;;;;;5155406;27;20046;-72
2022/03/06 02:45:39;;;;;;;28.87;25.77;;;0.00;99.90;;;;;;5155467;27;20046;-72
2022/03/06 02:48:06;;;;;;;28.03;25.13;;;0.00;99.90;;;;;;5155734;27;20095;-72
2022/03/06 02:50:34;;;;;;;28.33;25.53;;;-0.10;99.90;;;;;;5156177;27;20047;-72
2022/03/06 02:53:02;;;;;;;29.33;26.17;;;-0.10;99.90;;;;;;5134904;27;20168;-72
2022/03/06 02:55:28;;;;;;;29.03;26.10;;;-0.20;99.90;;;;;;5145229;27;20049;-72
2022/03/06 02:57:55;;;;;;;28.10;25.13;;;-0.20;99.90;;;;;;5154750;27;20050;-72
2022/03/06 03:00:23;;;;;;;28.17;25.37;;;-0.20;99.90;;;;;;5156121;27;20042;-72
2022/03/06 03:02:49;;;;;;;27.93;25.03;;;-0.20;99.90;;;;;;5137581;27;20070;-72
2022/03/06 03:05:16;;;;;;;28.70;25.83;;;-0.20;99.90;;;;;;5134702;27;20039;-72
2022/03/06 03:07:44;;;;;;;29.63;26.43;;;-0.20;99.90;;;;;;5153481;27;20077;-72
2022/03/06 03:10:13;;;;;;;29.47;26.37;;;-0.20;99.90;;;;;;5155220;27;20039;-72
2022/03/06 03:12:39;;;;;;;28.40;25.40;;;-0.20;99.90;;;;;;5155114;27;20057;-72
2022/03/06 03:15:06;;;;;;;28.43;25.63;;;-0.10;99.90;;;;;;5155176;27;20043;-72
2022/03/06 03:17:32;;;;;;;27.43;24.63;;;-0.10;99.90;;;;;;5119272;27;20050;-72
2022/03/06 03:19:57;;;;;;;27.47;24.70;;;-0.10;99.90;;;;;;5154505;27;20035;-73
2022/03/06 03:22:23;;;;;;;27.97;24.63;;;0.00;99.90;;;;;;5139912;27;20105;-72
2022/03/06 03:24:49;;;;;;;26.97;24.17;;;0.00;99.90;;;;;;5134776;27;20039;-72
2022/03/06 03:27:15;;;;;;;26.47;23.67;;;0.00;99.90;;;;;;5139891;27;20125;-72
2022/03/06 03:29:41;;;;;;;26.37;23.67;;;0.00;99.90;;;;;;5134931;27;20035;-72
2022/03/06 03:32:07;;;;;;;25.30;22.70;;;0.10;99.90;;;;;;5151198;27;20074;-72
2022/03/06 03:34:32;;;;;;;25.50;23.00;;;0.10;99.90;;;;;;5155365;27;20042;-72
2022/03/06 03:36:59;;;;;;;25.53;22.93;;;0.10;99.90;;;;;;5139805;27;20480;-74
2022/03/06 03:39:24;;;;;;;26.37;23.50;;;0.10;99.90;;;;;;5134568;27;20492;-72
2022/03/06 03:41:50;;;;;;;26.60;23.80;;;0.00;99.90;;;;;;5148123;27;20114;-72
2022/03/06 03:44:16;;;;;;;25.13;22.47;;;0.10;99.90;;;;;;5154300;27;20047;-73
2022/03/06 03:46:42;;;;;;;23.87;21.50;;;0.10;99.90;;;;;;5153125;27;20038;-71
2022/03/06 03:49:07;;;;;;;24.17;21.83;;;0.10;99.90;;;;;;5154474;27;20099;-72
2022/03/06 03:51:34;;;;;;;24.70;22.20;;;0.10;99.90;;;;;;5154404;27;20053;-71
2022/03/06 03:53:59;;;;;;;23.60;21.20;;;0.10;99.90;;;;;;5154643;27;20138;-74
2022/03/06 03:56:25;;;;;;;24.27;21.77;;;0.10;99.90;;;;;;5147332;27;20118;-72
2022/03/06 03:58:51;;;;;;;23.20;20.80;;;0.10;99.90;;;;;;5134259;27;20047;-72
2022/03/06 04:01:17;;;;;;;23.23;20.97;;;0.30;99.90;;;;;;5139741;27;20043;-72
2022/03/06 04:03:43;;;;;;;23.77;21.47;;;0.10;99.90;;;;;;5154571;27;20555;-72
2022/03/06 04:06:10;;;;;;;23.05;20.60;;;0.20;99.90;;;;;;5133832;27;20043;-72
2022/03/06 04:08:36;;;;;;;23.60;21.13;;;0.20;99.90;;;;;;5154294;27;20054;-72
2022/03/06 04:11:05;;;;;;;23.20;20.80;;;0.20;99.90;;;;;;5146975;27;20046;-74
2022/03/06 04:13:31;;;;;;;22.57;20.33;;;0.20;99.90;;;;;;5133960;27;20485;-73
2022/03/06 04:15:56;;;;;;;23.57;20.93;;;0.20;99.90;;;;;;5138921;27;20042;-72
2022/03/06 04:18:22;;;;;;;24.42;22.05;;;0.20;99.90;;;;;;5153651;27;20046;-72
2022/03/06 04:20:48;;;;;;;24.03;21.63;;;0.20;99.90;;;;;;5151380;27;20042;-72
2022/03/06 04:23:14;;;;;;;23.97;21.37;;;0.30;99.90;;;;;;5133179;27;20134;-72
2022/03/06 04:25:40;;;;;;;23.33;20.67;;;0.20;99.90;;;;;;5135038;27;20131;-73
2022/03/06 04:28:07;;;;;;;23.48;20.98;;;0.20;99.90;;;;;;5153696;27;20043;-72
2022/03/06 04:30:33;;;;;;;23.17;20.77;;;0.20;99.90;;;;;;5153560;27;20491;-73
2022/03/06 04:32:58;;;;;;;23.27;20.83;;;0.20;99.90;;;;;;5142258;27;20050;-72
2022/03/06 04:35:24;;;;;;;23.23;20.83;;;0.20;99.90;;;;;;5152215;27;20043;-71
2022/03/06 04:37:50;;;;;;;23.30;21.00;;;0.20;99.90;;;;;;5154398;27;20058;-72
2022/03/06 04:40:16;;;;;;;22.27;20.07;;;0.20;99.90;;;;;;5135991;27;20046;-72
2022/03/06 04:42:41;;;;;;;21.67;19.47;;;0.20;99.90;;;;;;5134069;27;20042;-72
2022/03/06 04:45:08;;;;;;;21.20;19.10;;;0.10;99.90;;;;;;5144221;27;20114;-72
2022/03/06 04:47:34;;;;;;;22.35;20.13;;;0.10;99.90;;;;;;5134717;27;20407;-72
2022/03/06 04:50:00;;;;;;;20.97;18.80;;;0.20;99.90;;;;;;5145903;27;20043;-72
2022/03/06 04:52:26;;;;;;;21.88;19.67;;;0.20;99.90;;;;;;5138908;27;20047;-72
2022/03/06 04:54:52;;;;;;;21.60;19.47;;;0.10;99.90;;;;;;5133516;27;20042;-72
2022/03/06 04:57:18;;;;;;;20.73;18.83;;;0.10;99.90;;;;;;5151905;27;20057;-72
2022/03/06 04:59:43;;;;;;;21.67;19.57;;;0.20;99.90;;;;;;5153712;27;20053;-72
2022/03/06 05:02:09;;;;;;;22.20;19.93;;;0.10;99.90;;;;;;5144564;27;20387;-73
2022/03/06 05:04:35;;;;;;;21.20;19.10;;;0.10;99.90;;;;;;5133020;28;20043;-72
2022/03/06 05:07:01;;;;;;;22.57;20.30;;;0.10;99.90;;;;;;5134085;27;20484;-72
2022/03/06 05:09:26;;;;;;;22.57;20.27;;;0.00;99.90;;;;;;5125290;27;20043;-72
2022/03/06 05:11:52;;;;;;;22.53;20.27;;;0.00;99.90;;;;;;5149165;27;20122;-72
2022/03/06 05:14:18;;;;;;;22.00;19.80;;;0.00;99.90;;;;;;5132678;28;20039;-72
2022/03/06 05:16:44;;;;;;;22.93;20.53;;;-0.10;99.90;;;;;;5134435;27;20046;-72
2022/03/06 05:19:10;;;;;;;23.00;20.50;;;-0.10;99.90;;;;;;5132484;28;20048;-73
2022/03/06 05:21:36;;;;;;;22.13;19.87;;;-0.20;99.90;;;;;;5144109;27;20041;-72
2022/03/06 05:24:03;;;;;;;22.30;20.10;;;-0.20;99.90;;;;;;5153030;27;20038;-72
2022/03/06 05:26:29;;;;;;;22.50;20.40;;;-0.30;99.90;;;;;;5124996;28;20239;-72
2022/03/06 05:28:55;;;;;;;22.83;20.47;;;-0.30;99.90;;;;;;5142194;27;20475;-72
2022/03/06 05:31:20;;;;;;;23.90;21.63;;;-0.30;99.90;;;;;;5146057;27;20466;-72
2022/03/06 05:33:46;;;;;;;23.13;20.87;;;-0.30;99.90;;;;;;5147705;27;20050;-72
2022/03/06 05:36:12;;;;;;;23.53;21.13;;;-0.30;99.90;;;;;;5156270;27;20051;-73
2022/03/06 05:38:38;;;;;;;22.67;20.37;;;-0.40;99.90;;;;;;5139285;27;20149;-72
2022/03/06 05:41:03;;;;;;;22.03;20.03;;;-0.40;99.90;;;;;;5152826;27;20047;-72
2022/03/06 05:43:29;;;;;;;23.67;21.23;;;-0.40;99.90;;;;;;5136869;27;20049;-72
2022/03/06 05:45:55;;;;;;;23.27;20.80;;;-0.40;99.90;;;;;;5138139;27;20043;-72
2022/03/06 05:48:21;;;;;;;23.80;21.50;;;-0.40;99.90;;;;;;5154383;27;20391;-72
2022/03/06 05:50:48;;;;;;;22.37;20.17;;;-0.40;99.90;;;;;;5156516;27;20467;-72
2022/03/06 05:53:14;;;;;;;22.87;20.57;;;-0.40;99.90;;;;;;5137323;27;20047;-73
2022/03/06 05:55:40;;;;;;;22.03;19.83;;;-0.40;99.90;;;;;;5136612;27;20118;-72
2022/03/06 05:58:06;;;;;;;22.93;20.57;;;-0.50;99.90;;;;;;5136677;27;20518;-72
2022/03/06 06:00:32;;;;;;;23.57;21.20;;;-0.50;99.90;;;;;;5154199;27;20048;-72
2022/03/06 06:02:58;;;;;;;22.57;20.37;;;-0.50;99.90;;;;;;5157194;27;20043;-72
2022/03/06 06:05:24;;;;;;;22.40;20.07;;;-0.50;99.90;;;;;;5138517;27;20050;-72
2022/03/06 06:07:51;;;;;;;21.90;19.80;;;-0.40;99.90;;;;;;5136373;27;20043;-72
2022/03/06 06:10:17;;;;;;;21.77;19.67;;;-0.50;99.90;;;;;;5152319;27;20117;-73
2022/03/06 06:12:43;;;;;;;22.00;19.93;;;-0.50;99.90;;;;;;5156614;27;20053;-72
2022/03/06 06:15:10;;;;;;;22.57;20.30;;;-0.50;99.90;;;;;;5153492;27;20042;-72
2022/03/06 06:17:36;;;;;;;23.03;20.83;;;-0.50;99.90;;;;;;5155732;27;20043;-72
2022/03/06 06:20:07;;;;;;;21.30;19.13;;;-0.50;99.90;;;;;;5153446;27;20039;-73
2022/03/06 06:22:33;;;;;;;;;;;-0.50;99.90;;;;;;5153350;27;20086;-73
2022/03/06 06:24:59;;;;;;;20.27;18.27;;;-0.50;99.90;;;;;;5146837;27;19951;-72
2022/03/06 06:27:25;;;;;;;20.53;18.53;;;-0.50;99.90;;;;;;5154008;27;20074;-73
2022/03/06 06:29:51;;;;;;;21.03;18.97;;;-0.50;99.90;;;;;;5118015;27;20047;-72
2022/03/06 06:32:17;;;;;;;21.30;19.20;;;-0.50;99.90;;;;;;5135831;27;20053;-73
2022/03/06 06:34:44;;;;;;;19.30;17.40;;;-0.50;99.90;;;;;;5150077;27;20043;-72
2022/03/06 06:37:11;;;;;;;18.53;16.83;;;-0.50;99.90;;;;;;5144181;27;20054;-72
2022/03/06 06:39:36;;;;;;;19.03;17.23;;;-0.50;99.90;;;;;;5155162;27;20054;-72
2022/03/06 06:42:03;;;;;;;18.97;17.13;;;-0.40;99.90;;;;;;5156511;27;20042;-72
2022/03/06 06:44:29;;;;;;;18.53;16.70;;;-0.40;99.90;;;;;;5138057;27;20100;-72
2022/03/06 06:46:55;;;;;;;18.63;16.83;;;-0.30;99.90;;;;;;5156365;27;20042;-72
2022/03/06 06:49:22;;;;;;;18.30;16.40;;;-0.30;99.90;;;;;;5147083;27;20046;-74
2022/03/06 06:51:48;;;;;;;17.70;15.90;;;-0.20;99.90;;;;;;5156242;27;20094;-71
2022/03/06 06:54:14;;;;;;;16.00;14.47;;;-0.20;99.90;;;;;;5155676;27;20050;-72
2022/03/06 06:56:39;;;;;;;15.77;14.37;;;-0.10;99.90;;;;;;5120849;27;20678;-72
2022/03/06 06:59:05;;;;;;;15.47;13.97;;;-0.10;99.90;;;;;;5146724;27;20081;-72
2022/03/06 07:01:31;;;;;;;15.30;13.90;;;0.00;99.90;;;;;;5155243;27;20038;-72
2022/03/06 07:03:57;;;;;;;13.90;12.50;;;0.10;99.90;;;;;;5154976;27;20038;-72
2022/03/06 07:06:22;;;;;;;13.48;11.98;;;0.20;99.90;;;;;;5144781;27;20045;-73
2022/03/06 07:08:48;;;;;;;12.40;11.20;;;0.20;99.90;;;;;;5142484;27;20039;-72
2022/03/06 07:11:14;;;;;;;13.37;11.97;;;0.30;99.90;;;;;;5154109;27;20507;-72
2022/03/06 07:13:40;;;;;;;11.98;10.90;;;0.40;99.90;;;;;;5134350;27;20117;-72
2022/03/06 07:16:05;;;;;;;11.57;10.52;;;0.40;99.90;;;;;;5155765;27;20056;-72
2022/03/06 07:18:31;;;;;;;10.50;9.52;;;0.50;99.90;;;;;;5136062;27;20513;-72
2022/03/06 07:20:57;;;;;;;10.40;9.43;;;0.50;99.90;;;;;;5132568;27;20047;-72
2022/03/06 07:23:22;;;;;;;9.68;8.68;;;0.60;99.90;;;;;;5145350;27;20510;-73
2022/03/06 07:25:48;;;;;;;9.18;8.27;;;0.70;99.90;;;;;;5154392;27;20085;-72
2022/03/06 07:28:14;;;;;;;9.45;8.55;;;0.90;99.90;;;;;;5150950;27;20081;-72
2022/03/06 07:30:40;;;;;;;9.43;8.15;;;1.00;99.90;;;;;;5136499;27;20102;-72
2022/03/06 07:33:05;;;;;;;9.10;8.02;;;1.00;99.90;;;;;;5134758;27;20070;-72
2022/03/06 07:35:31;;;;;;;9.70;8.35;;;1.10;99.90;;;;;;5136353;27;20102;-71
2022/03/06 07:37:58;;;;;;;8.10;7.20;;;1.20;99.90;;;;;;5155474;27;20058;-72
2022/03/06 07:40:24;;;;;;;8.43;7.53;;;1.20;99.90;;;;;;5153505;27;20440;-72
2022/03/06 07:42:50;;;;;;;8.35;7.07;;;1.30;99.90;;;;;;5133825;27;20088;-72
2022/03/06 07:45:17;;;;;;;8.30;7.03;;;1.40;99.90;;;;;;5134264;27;20043;-72
2022/03/06 07:47:43;;;;;;;7.93;7.13;;;1.40;99.90;;;;;;5115728;27;20039;-72
2022/03/06 07:50:11;;;;;;;8.02;7.22;;;1.40;99.90;;;;;;5135055;27;20392;-72
2022/03/06 07:52:38;;;;;;;7.30;6.60;;;1.50;99.90;;;;;;5151934;27;20035;-72
2022/03/06 07:55:06;;;;;;;7.90;6.10;;;1.60;99.90;;;;;;5154544;27;20468;-72
2022/03/06 07:57:32;;;;;;;6.55;5.95;;;1.60;99.90;;;;;;5150071;27;20461;-73
2022/03/06 07:59:57;;;;;;;7.03;6.30;;;1.70;99.90;;;;;;5133878;27;20096;-72
2022/03/06 08:02:23;;;;;;;7.13;6.30;;;1.70;99.90;;;;;;5135118;27;20502;-72
2022/03/06 08:04:49;;;;;;;6.40;5.80;;;1.90;99.90;;;;;;5153878;27;20125;-72
2022/03/06 08:07:15;;;;;;;6.47;5.88;;;1.90;99.90;;;;;;5135413;27;20121;-72
2022/03/06 08:09:40;;;;;;;6.80;6.10;;;2.10;99.90;;;;;;5154390;27;20054;-72
2022/03/06 08:12:07;;;;;;;7.25;5.40;;;2.10;99.90;;;;;;5120088;27;20047;-72
2022/03/06 08:14:32;;;;;;;6.65;5.43;;;2.30;99.90;;;;;;5149234;27;20038;-73
2022/03/06 08:16:58;;;;;;;6.53;5.15;;;2.30;99.90;;;;;;5147940;27;20102;-72
2022/03/06 08:19:24;;;;;;;6.05;5.30;;;2.40;99.90;;;;;;5154488;27;20091;-71
2022/03/06 08:21:50;;;;;;;7.07;5.40;;;2.50;99.90;;;;;;5153288;27;20051;-71
2022/03/06 08:24:16;;;;;;;6.13;5.20;;;2.60;99.90;;;;;;5145038;27;20043;-72
2022/03/06 08:26:43;;;;;;;5.32;4.80;;;2.80;99.90;;;;;;5135225;27;20415;-71
2022/03/06 08:29:09;;;;;;;6.95;5.10;;;2.90;99.90;;;;;;5132044;27;20046;-72
2022/03/06 08:31:34;;;;;;;5.38;4.85;;;2.90;99.90;;;;;;5153877;27;20039;-72
2022/03/06 08:34:01;;;;;;;5.88;4.80;;;2.90;99.90;;;;;;5150324;27;20057;-71
2022/03/06 08:36:26;;;;;;;5.53;4.95;;;2.90;99.90;;;;;;5133470;27;20094;-71
2022/03/06 08:38:52;;;;;;;5.22;4.72;;;3.00;99.90;;;;;;5146353;27;20307;-71
2022/03/06 08:41:18;;;;;;;5.47;4.95;;;3.10;99.90;;;;;;5152463;27;20126;-72
2022/03/06 08:43:44;;;;;;;5.00;4.40;;;3.40;99.90;;;;;;5152998;27;20039;-71
2022/03/06 08:46:10;;;;;;;4.82;4.32;;;3.50;99.90;;;;;;5154195;27;20049;-72
2022/03/06 08:48:37;;;;;;;4.80;4.20;;;3.60;99.90;;;;;;5134546;27;20399;-73
2022/03/06 08:51:06;;;;;;;5.47;4.53;;;3.70;99.90;;;;;;5114748;28;20078;-72
2022/03/06 08:53:32;;;;;;;5.05;4.57;;;3.90;99.10;;;;;;5149206;27;20368;-72
2022/03/06 08:55:59;;;;;;;5.18;4.45;;;4.10;98.70;;;;;;5145950;27;20119;-71
2022/03/06 08:58:25;;;;;;;4.65;4.25;;;4.30;96.60;;;;;;5153971;27;20468;-73
2022/03/06 09:00:51;;;;;;;4.75;4.20;;;4.50;96.40;;;;;;5153554;27;20126;-72
2022/03/06 09:03:17;;;;;;;4.70;4.15;;;4.90;92.70;;;;;;5153702;27;20387;-72
2022/03/06 09:05:42;;;;;;;4.65;4.15;;;5.30;92.10;;;;;;5153153;27;20095;-72
2022/03/06 09:08:11;;;;;;;4.90;4.38;;;5.70;90.40;;;;;;5138412;27;20086;-72
2022/03/06 09:10:39;;;;;;;4.82;3.90;;;6.00;86.60;;;;;;5157441;27;20054;-73
2022/03/06 09:13:05;;;;;;;5.45;4.25;;;6.30;84.80;;;;;;5158015;27;20043;-72
2022/03/06 09:15:32;;;;;;;5.32;4.50;;;6.40;80.70;;;;;;5157728;27;20050;-72
2022/03/06 09:17:58;;;;;;;4.60;3.90;;;6.50;82.10;;;;;;5152962;27;20037;-72
2022/03/06 09:20:24;;;;;;;4.13;3.72;;;6.80;77.00;;;;;;5150513;27;20043;-72
2022/03/06 09:22:50;;;;;;;4.00;3.60;;;6.90;74.00;;;;;;5143157;27;20085;-75
2022/03/06 09:25:16;;;;;;;6.70;4.18;;;7.00;72.60;;;;;;5137381;27;20453;-71
2022/03/06 09:27:42;;;;;;;3.97;3.65;;;7.10;72.50;;;;;;5140134;27;20492;-72
2022/03/06 09:30:09;;;;;;;4.20;3.60;;;6.90;72.90;;;;;;5139751;27;20051;-71
2022/03/06 09:32:35;;;;;;;4.35;3.92;;;7.10;70.20;;;;;;5157167;27;20039;-72
2022/03/06 09:35:02;;;;;;;4.20;3.80;;;7.20;69.50;;;;;;5157032;27;20139;-72
2022/03/06 09:37:27;;;;;;;3.90;3.50;;;7.20;69.10;;;;;;5157193;27;20411;-72
2022/03/06 09:39:53;;;;;;;3.90;3.53;;;7.10;69.40;;;;;;5149273;27;20040;-72
2022/03/06 09:42:20;;;;;;;6.30;5.25;;;7.10;69.70;;;;;;5142292;27;20039;-72
2022/03/06 09:44:47;;;;;;;4.65;4.25;;;7.20;68.20;;;;;;5141445;27;20038;-73
2022/03/06 09:47:13;;;;;;;4.60;4.20;;;7.20;67.50;;;;;;5156009;27;20057;-72
2022/03/06 09:49:40;;;;;;;4.63;4.20;;;7.30;67.40;;;;;;5157593;27;20053;-72
2022/03/06 09:52:06;;;;;;;4.22;3.83;;;7.30;67.00;;;;;;5135579;27;20045;-72
2022/03/06 09:54:32;;;;;;;4.60;3.90;;;7.30;67.00;;;;;;5151820;27;20042;-72
2022/03/06 09:56:57;;;;;;;5.00;4.10;;;7.20;67.60;;;;;;5155578;27;20042;-73
2022/03/06 09:59:23;;;;;;;4.40;4.00;;;7.20;69.70;;;;;;5156851;27;20424;-73
2022/03/06 10:01:49;;;;;;;4.60;4.10;;;7.40;69.40;;;;;;5137825;27;20095;-73
2022/03/06 10:04:29;;;;;;;4.78;4.20;;;7.40;68.10;;;;;;5144243;27;20046;-72
2022/03/06 10:07:05;;;;;;;5.60;4.53;;;7.60;68.10;;;;;;5130505;27;20055;-73
2022/03/06 10:09:32;;;;;;;5.25;4.38;;;7.70;66.20;;;;;;5133554;27;20054;-73
2022/03/06 10:11:58;;;;;;;5.95;4.70;;;7.50;66.70;;;;;;5128630;27;20432;-72
2022/03/06 10:14:38;;;;;;;5.03;4.53;;;7.50;66.50;;;;;;5153574;27;20098;-73
2022/03/06 10:17:21;;;;;;;4.80;4.40;;;7.50;66.40;;;;;;5153381;27;20078;-73
2022/03/06 10:19:59;;;;;;;5.40;4.90;;;7.40;65.40;;;;;;5132025;27;20047;-71
2022/03/06 10:22:30;;;;;;;6.18;5.53;;;7.50;64.70;;;;;;5133552;27;20434;-74
2022/03/06 10:24:59;;;;;;;5.95;5.00;;;7.30;62.70;;;;;;5151343;27;20050;-72
2022/03/06 10:27:45;;;;;;;5.03;4.55;;;7.00;65.50;;;;;;5152506;27;20119;-73
2022/03/06 10:30:26;;;;;;;6.75;5.45;;;6.90;66.70;;;;;;5146429;27;20480;-72
2022/03/06 10:32:52;;;;;;;6.93;5.82;;;6.90;65.30;;;;;;5143658;27;20118;-71
2022/03/06 10:35:18;;;;;;;5.32;4.90;;;6.80;66.20;;;;;;5152865;27;20361;-74
2022/03/06 10:37:44;;;;;;;5.53;5.00;;;6.60;65.90;;;;;;5151968;27;20057;-75
2022/03/06 10:40:14;;;;;;;6.35;5.30;;;6.60;66.80;;;;;;5132848;27;20174;-71
2022/03/06 10:42:43;;;;;;;6.45;5.57;;;6.50;67.40;;;;;;5151459;27;20050;-72
2022/03/06 10:45:29;;;;;;;5.70;5.13;;;6.40;67.50;;;;;;5131132;27;20039;-70
2022/03/06 10:47:56;;;;;;;6.00;5.40;;;6.30;66.50;;;;;;5135584;27;20046;-71
2022/03/06 10:50:25;;;;;;;6.60;5.90;;;6.10;68.40;;;;;;5152891;27;20412;-71
2022/03/06 10:52:53;;;;;;;6.80;5.70;;;6.00;68.30;;;;;;5151451;27;20087;-72
2022/03/06 10:55:39;;;;;;;6.75;6.05;;;5.90;69.40;;;;;;5153223;27;20043;-70
2022/03/06 10:58:05;;;;;;;6.65;6.05;;;5.80;68.00;;;;;;5139313;27;20371;-71
2022/03/06 11:00:32;;;;;;;6.68;6.07;;;5.70;70.10;;;;;;5144460;27;20570;-71
2022/03/06 11:03:03;;;;;;;7.40;6.70;;;5.60;69.80;;;;;;5119226;27;20509;-71
2022/03/06 11:05:29;;;;;;;;;;;5.60;70.40;;;;;;5153763;27;20087;-72
2022/03/06 11:07:55;;;;;;;6.60;6.00;;;5.50;70.90;;;;;;5146666;27;19959;-73
2022/03/06 11:10:21;;;;;;;6.75;6.15;;;5.50;70.80;;;;;;5137206;27;20095;-71
2022/03/06 11:12:47;;;;;;;7.32;6.40;;;5.50;72.30;;;;;;5140249;27;20047;-75
2022/03/06 11:15:13;;;;;;;6.90;5.97;;;5.50;72.10;;;;;;5151728;27;20045;-73
2022/03/06 11:17:41;;;;;;;7.25;6.65;;;5.50;70.60;;;;;;5133497;27;20445;-72
2022/03/06 11:20:07;;;;;;;7.82;7.10;;;5.40;72.10;;;;;;5146220;27;20495;-71
2022/03/06 11:22:33;;;;;;;7.63;6.82;;;5.40;72.40;;;;;;5134879;27;20042;-75
2022/03/06 11:25:10;;;;;;;7.80;7.10;;;5.50;71.00;;;;;;5136777;27;20046;-72
2022/03/06 11:27:50;;;;;;;7.55;6.68;;;5.40;71.30;;;;;;5138285;27;20042;-71
2022/03/06 11:30:21;;;;;;;7.18;6.47;;;5.40;68.80;;;;;;5099577;27;20059;-71
2022/03/06 11:33:03;;;;;;;7.05;6.35;;;5.30;69.70;;;;;;5116868;27;20042;-71
2022/03/06 11:35:32;;;;;;;6.30;5.80;;;5.40;69.00;;;;;;5134487;27;20039;-70
2022/03/06 11:37:59;;;;;;;6.53;5.93;;;5.40;69.30;;;;;;5147347;27;20050;-72
2022/03/06 11:40:44;;;;;;;5.70;4.72;;;5.40;71.10;;;;;;5155169;27;20038;-71
2022/03/06 11:43:32;;;;;;;4.82;4.43;;;5.40;70.90;;;;;;5149151;27;20043;-71
2022/03/06 11:46:16;;;;;;;4.55;4.15;;;5.40;66.20;;;;;;5134018;27;20039;-71
2022/03/06 11:48:44;;;;;;;5.35;3.85;;;5.40;70.10;;;;;;5148972;27;20475;-71
2022/03/06 11:51:22;;;;;;;5.10;4.32;;;5.40;66.70;;;;;;5154171;27;20057;-72
2022/03/06 11:54:13;;;;;;;4.32;3.92;;;5.50;66.00;;;;;;5127248;27;20091;-71
2022/03/06 11:56:41;;;;;;;4.15;3.75;;;5.40;66.40;;;;;;5137294;27;20083;-71
2022/03/06 11:59:26;;;;;;;5.85;4.00;;;5.30;67.90;;;;;;5116942;27;20050;-71
2022/03/06 12:02:01;;;;;;;4.28;3.53;;;5.40;68.60;;;;;;5138349;27;20039;-72
2022/03/06 12:04:39;;;;;;;3.80;3.47;;;5.40;69.10;;;;;;5154376;27;20061;-72
2022/03/06 12:07:07;;;;;;;4.32;3.88;;;5.50;69.00;;;;;;5129947;27;20452;-71
2022/03/06 12:09:37;;;;;;;5.20;3.72;;;5.50;67.00;;;;;;5148900;27;20057;-71
2022/03/06 12:12:25;;;;;;;4.32;3.72;;;5.50;70.40;;;;;;5153306;27;20039;-72
2022/03/06 12:14:53;;;;;;;3.78;3.35;;;5.60;68.10;;;;;;5142393;27;20043;-71
2022/03/06 12:17:22;;;;;;;3.63;3.33;;;5.70;63.20;;;;;;5133318;27;20051;-71
2022/03/06 12:19:47;;;;;;;3.92;3.47;;;5.70;65.00;;;;;;5135868;27;20058;-72
2022/03/06 12:22:19;;;;;;;4.10;3.67;;;5.70;65.10;;;;;;5150494;27;20051;-71
2022/03/06 12:24:49;;;;;;;4.28;3.67;;;5.60;66.20;;;;;;5152623;27;20518;-72
2022/03/06 12:27:23;;;;;;;5.93;3.92;;;5.70;67.20;;;;;;5133261;27;20047;-72
2022/03/06 12:29:48;;;;;;;4.80;4.15;;;5.70;66.50;;;;;;5148134;27;20494;-71
2022/03/06 12:32:27;;;;;;;4.07;3.70;;;5.70;66.20;;;;;;5134258;27;20130;-72
2022/03/06 12:35:02;;;;;;;4.93;3.88;;;5.70;65.60;;;;;;5133890;27;20055;-72
2022/03/06 12:37:29;;;;;;;4.35;3.92;;;5.70;66.80;;;;;;5134162;27;20063;-72
2022/03/06 12:39:56;;;;;;;4.55;3.78;;;5.80;65.40;;;;;;5133879;27;20051;-73
2022/03/06 12:42:33;;;;;;;4.43;4.03;;;5.80;66.50;;;;;;5133438;27;20171;-72
2022/03/06 12:45:03;;;;;;;4.85;3.70;;;5.80;66.90;;;;;;5133610;27;20065;-72